Time;durP1;ratioP1;P1;durP2;ratioP2;P2;SDS_P1;SDS_P2;PMS_P1;PMS_P2;Temp;Humidity;BMP_temperature;BMP_pressure;BME280_temperature;BME280_humidity;BME280_pressure;Samples;Min_cycle;Max_cycle;Signal;HPM_P1;HPM_P2
2024/01/08 00:02:22;;;;;;;6.55;4.85;;;3.10;1.00;;;;;;5071327;28;20068;-78
2024/01/08 00:04:48;;;;;;;7.93;5.30;;;2.10;1.00;;;;;;5035632;28;20040;-77
2024/01/08 00:07:13;;;;;;;7.32;5.30;;;2.10;1.00;;;;;;5002613;28;20112;-76
2024/01/08 00:09:39;;;;;;;8.15;5.43;;;3.10;1.00;;;;;;5033936;28;20037;-77
2024/01/08 00:12:05;;;;;;;7.70;4.78;;;2.00;1.00;;;;;;5035185;28;20071;-79
2024/01/08 00:14:30;;;;;;;7.43;5.15;;;2.00;1.00;;;;;;5048663;28;20045;-78
2024/01/08 00:16:56;;;;;;;6.07;4.70;;;1.90;1.00;;;;;;5059091;28;20041;-77
2024/01/08 00:19:22;;;;;;;7.63;4.88;;;3.00;1.00;;;;;;5051454;28;20079;-77
2024/01/08 00:21:47;;;;;;;6.45;5.10;;;2.20;1.00;;;;;;5052341;28;20413;-77
2024/01/08 00:24:13;;;;;;;7.72;4.95;;;1.90;1.00;;;;;;5050813;28;20043;-78
2024/01/08 00:26:39;;;;;;;7.28;5.20;;;1.80;1.00;;;;;;5034810;28;20041;-79
2024/01/08 00:29:04;;;;;;;7.47;5.20;;;1.80;1.00;;;;;;5029642;28;20030;-79
2024/01/08 00:31:30;;;;;;;8.57;5.45;;;1.80;1.00;;;;;;5010817;28;20037;-77
2024/01/08 00:33:56;;;;;;;8.27;5.15;;;1.80;1.00;;;;;;5016535;28;20052;-77
2024/01/08 00:36:22;;;;;;;9.25;5.60;;;1.80;1.00;;;;;;5036564;28;20056;-79
2024/01/08 00:38:48;;;;;;;6.72;5.43;;;2.40;1.00;;;;;;5072502;28;20091;-77
2024/01/08 00:41:13;;;;;;;8.48;5.93;;;2.60;1.00;;;;;;5019402;28;20037;-77
2024/01/08 00:43:39;;;;;;;8.57;5.53;;;1.70;1.00;;;;;;5033698;28;20053;-78
2024/01/08 00:46:05;;;;;;;7.78;5.28;;;1.60;1.00;;;;;;5050027;28;20044;-78
2024/01/08 00:48:30;;;;;;;9.15;5.30;;;1.60;1.00;;;;;;5030128;28;20029;-79
2024/01/08 00:50:56;;;;;;;9.38;5.82;;;1.70;1.00;;;;;;5049613;28;20036;-81
2024/01/08 00:53:22;;;;;;;9.52;5.70;;;2.70;1.00;;;;;;5051223;28;20073;-79
2024/01/08 00:55:47;;;;;;;8.00;5.50;;;1.60;1.00;;;;;;5046600;28;20053;-77
2024/01/08 00:58:13;;;;;;;8.13;6.00;;;2.90;1.00;;;;;;5034248;28;20040;-80
2024/01/08 01:00:39;;;;;;;7.63;5.97;;;2.30;1.00;;;;;;5034315;28;20461;-77
2024/01/08 01:03:04;;;;;;;12.35;6.65;;;1.50;1.00;;;;;;5001801;28;20041;-82
2024/01/08 01:05:30;;;;;;;8.82;5.47;;;2.50;1.00;;;;;;5014619;28;20738;-79
2024/01/08 01:07:56;;;;;;;8.48;6.57;;;1.60;1.00;;;;;;5049222;28;20552;-81
2024/01/08 01:10:21;;;;;;;9.52;6.30;;;1.60;1.00;;;;;;5048703;28;20044;-78
2024/01/08 01:12:47;;;;;;;10.07;6.43;;;1.80;1.00;;;;;;5031689;28;20073;-79
2024/01/08 01:15:12;;;;;;;8.60;5.70;;;1.60;1.00;;;;;;5036360;28;20099;-77
2024/01/08 01:17:38;;;;;;;8.65;6.53;;;1.80;1.00;;;;;;5050315;28;20426;-80
2024/01/08 01:20:05;;;;;;;7.55;6.20;;;1.80;1.00;;;;;;5017509;28;20078;-79
2024/01/08 01:22:30;;;;;;;9.30;6.90;;;1.80;1.00;;;;;;5032073;28;20071;-76
2024/01/08 01:24:56;;;;;;;9.57;6.70;;;1.70;19.30;;;;;;5016977;28;20065;-78
2024/01/08 01:27:21;;;;;;;8.85;6.75;;;1.80;14.30;;;;;;5033421;28;20037;-77
2024/01/08 01:29:47;;;;;;;11.43;6.70;;;1.80;10.20;;;;;;5050352;28;20048;-77
2024/01/08 01:32:13;;;;;;;8.73;6.65;;;2.70;20.90;;;;;;5067558;28;20151;-78
2024/01/08 01:34:39;;;;;;;10.75;6.30;;;2.30;3.60;;;;;;5083954;28;20037;-77
2024/01/08 01:37:05;;;;;;;10.88;7.10;;;1.80;14.10;;;;;;5031102;28;20051;-79
2024/01/08 01:39:32;;;;;;;11.30;7.70;;;2.00;10.70;;;;;;5015608;28;20045;-77
2024/01/08 01:41:58;;;;;;;9.00;6.72;;;2.80;26.00;;;;;;5033750;28;20033;-80
2024/01/08 01:44:24;;;;;;;9.77;6.78;;;2.90;47.50;;;;;;5049867;28;20519;-80
2024/01/08 01:46:51;;;;;;;11.10;7.30;;;2.50;47.60;;;;;;5048849;28;20025;-78
2024/01/08 01:49:19;;;;;;;10.55;7.90;;;1.90;53.30;;;;;;5033517;28;20068;-77
2024/01/08 01:51:47;;;;;;;10.10;7.35;;;2.10;75.10;;;;;;5061332;28;20058;-79
2024/01/08 01:54:15;;;;;;;10.85;7.95;;;2.10;62.10;;;;;;5053656;28;20064;-80
2024/01/08 01:56:46;;;;;;;10.05;7.47;;;3.00;59.00;;;;;;5036726;28;20098;-81
2024/01/08 01:59:15;;;;;;;9.88;8.10;;;2.10;79.20;;;;;;5030693;28;20047;-78
2024/01/08 02:01:41;;;;;;;10.55;7.25;;;2.20;67.60;;;;;;5032453;28;20053;-78
2024/01/08 02:04:08;;;;;;;9.52;7.53;;;3.10;86.30;;;;;;5083677;28;20049;-77
2024/01/08 02:06:35;;;;;;;13.82;7.68;;;2.40;96.20;;;;;;5053622;28;20045;-78
2024/01/08 02:09:02;;;;;;;10.57;7.93;;;3.00;97.80;;;;;;5049139;28;20566;-81
2024/01/08 02:11:29;;;;;;;11.18;7.65;;;2.20;99.90;;;;;;5053189;28;20049;-78
2024/01/08 02:13:55;;;;;;;10.85;7.85;;;2.30;99.90;;;;;;5048802;28;20045;-78
2024/01/08 02:16:20;;;;;;;9.77;7.72;;;2.30;97.50;;;;;;5046299;28;20068;-79
2024/01/08 02:18:46;;;;;;;11.23;8.43;;;2.30;99.90;;;;;;5032102;28;20033;-78
2024/01/08 02:21:12;;;;;;;9.13;7.00;;;2.20;99.90;;;;;;5042307;28;20045;-80
2024/01/08 02:23:38;;;;;;;9.73;7.38;;;2.30;99.90;;;;;;5031331;28;20044;-81
2024/01/08 02:26:04;;;;;;;11.18;7.80;;;2.50;99.90;;;;;;5082384;28;20052;-81
2024/01/08 02:28:30;;;;;;;9.35;7.28;;;2.50;99.90;;;;;;5015518;28;20032;-77
2024/01/08 02:30:56;;;;;;;11.93;8.57;;;2.50;99.90;;;;;;5079642;28;20045;-79
2024/01/08 02:33:22;;;;;;;9.85;7.72;;;2.60;99.90;;;;;;5048911;28;20048;-79
2024/01/08 02:35:47;;;;;;;12.02;8.23;;;3.30;97.10;;;;;;5062801;28;20040;-78
2024/01/08 02:38:13;;;;;;;11.65;7.88;;;2.60;99.90;;;;;;5032039;28;20040;-77
2024/01/08 02:40:42;;;;;;;10.75;8.13;;;3.60;99.90;;;;;;5049102;28;20049;-81
2024/01/08 02:43:07;;;;;;;8.80;7.35;;;2.60;99.90;;;;;;5048739;28;20045;-78
2024/01/08 02:45:33;;;;;;;9.23;7.50;;;2.60;99.90;;;;;;5049015;28;20041;-78
2024/01/08 02:47:58;;;;;;;10.68;7.93;;;2.60;99.90;;;;;;5030004;28;20171;-82
2024/01/08 02:50:24;;;;;;;9.85;7.47;;;2.70;99.90;;;;;;5025399;28;20041;-78
2024/01/08 02:52:50;;;;;;;9.48;6.85;;;2.70;99.90;;;;;;5007313;28;20049;-81
2024/01/08 02:55:15;;;;;;;8.75;7.15;;;2.70;99.90;;;;;;5048782;28;20044;-77
2024/01/08 02:57:41;;;;;;;8.10;6.28;;;2.60;99.80;;;;;;5040377;28;20045;-80
2024/01/08 03:00:08;;;;;;;10.10;6.72;;;2.70;73.70;;;;;;5030706;28;20060;-77
2024/01/08 03:02:34;;;;;;;8.70;6.18;;;2.60;62.30;;;;;;5043501;28;20100;-79
2024/01/08 03:05:00;;;;;;;7.28;6.20;;;2.70;44.50;;;;;;5028334;28;20043;-78
2024/01/08 03:07:26;;;;;;;9.27;6.97;;;2.70;34.20;;;;;;5012350;28;20029;-78
2024/01/08 03:09:56;;;;;;;11.13;6.63;;;2.70;48.30;;;;;;5043266;28;20041;-78
2024/01/08 03:12:22;;;;;;;9.60;6.32;;;2.60;21.90;;;;;;5033408;28;20049;-80
2024/01/08 03:14:48;;;;;;;8.50;6.50;;;3.60;35.90;;;;;;5041291;28;20041;-79
2024/01/08 03:17:14;;;;;;;10.23;6.65;;;3.50;25.50;;;;;;5030863;28;20040;-80
2024/01/08 03:19:39;;;;;;;8.32;6.43;;;2.70;33.00;;;;;;5031809;28;20804;-79
2024/01/08 03:22:05;;;;;;;9.43;6.60;;;2.70;33.90;;;;;;5065487;28;20099;-79
2024/01/08 03:24:31;;;;;;;9.20;6.30;;;4.00;38.20;;;;;;5063878;28;20131;-78
2024/01/08 03:26:57;;;;;;;9.23;6.50;;;2.70;55.90;;;;;;5031880;28;20040;-78
2024/01/08 03:29:23;;;;;;;10.05;7.53;;;3.30;28.10;;;;;;4998858;28;20392;-78
2024/01/08 03:31:49;;;;;;;9.25;6.57;;;3.00;3.40;;;;;;5031348;28;20600;-78
2024/01/08 03:34:15;;;;;;;9.13;6.43;;;2.60;14.40;;;;;;5046107;28;20048;-79
2024/01/08 03:36:45;;;;;;;8.80;6.70;;;2.80;11.10;;;;;;5029456;28;20041;-80
2024/01/08 03:39:12;;;;;;;7.45;5.95;;;2.60;1.90;;;;;;5042734;28;20135;-79
2024/01/08 03:41:39;;;;;;;7.63;5.85;;;2.80;24.10;;;;;;5031107;28;20037;-81
2024/01/08 03:44:05;;;;;;;6.95;5.85;;;2.80;24.20;;;;;;5048613;28;20037;-81
2024/01/08 03:46:31;;;;;;;7.47;5.68;;;2.80;6.20;;;;;;5032081;28;20068;-82
2024/01/08 03:48:57;;;;;;;7.90;5.70;;;3.10;1.00;;;;;;5045492;28;20091;-82
2024/01/08 03:51:23;;;;;;;6.65;5.57;;;3.00;1.00;;;;;;5047075;28;20513;-78
2024/01/08 03:53:48;;;;;;;8.10;5.75;;;2.70;1.00;;;;;;5048164;28;20044;-80
2024/01/08 03:56:14;;;;;;;8.95;5.57;;;3.00;1.00;;;;;;5031157;28;20489;-79
2024/01/08 03:58:40;;;;;;;7.55;5.78;;;2.80;1.00;;;;;;5074400;28;20455;-81
2024/01/08 04:01:06;;;;;;;8.23;5.90;;;3.90;10.20;;;;;;5031534;28;20057;-80
2024/01/08 04:03:32;;;;;;;8.98;6.35;;;2.90;22.20;;;;;;5031391;28;20075;-81
2024/01/08 04:05:57;;;;;;;8.05;5.68;;;3.20;20.20;;;;;;5038707;28;20033;-79
2024/01/08 04:08:23;;;;;;;8.13;6.03;;;3.90;17.80;;;;;;5031979;28;20477;-78
2024/01/08 04:10:49;;;;;;;7.53;6.10;;;3.40;18.70;;;;;;5028999;28;20044;-79
2024/01/08 04:13:14;;;;;;;10.05;6.45;;;2.60;9.00;;;;;;5046309;28;20131;-78
2024/01/08 04:15:40;;;;;;;8.48;5.55;;;2.60;1.00;;;;;;5031147;28;20501;-80
2024/01/08 04:18:05;;;;;;;6.50;5.20;;;2.50;1.00;;;;;;5031422;28;20462;-78
2024/01/08 04:20:31;;;;;;;7.53;5.00;;;2.60;1.00;;;;;;5045211;28;20037;-78
2024/01/08 04:22:57;;;;;;;8.00;5.15;;;3.70;1.00;;;;;;5014666;28;20626;-80
2024/01/08 04:25:23;;;;;;;7.63;5.07;;;2.50;1.00;;;;;;5047970;28;20401;-79
2024/01/08 04:27:48;;;;;;;6.75;4.72;;;2.80;1.00;;;;;;5014941;28;20125;-81
2024/01/08 04:30:14;;;;;;;5.88;4.28;;;3.40;1.00;;;;;;5046666;28;20362;-79
2024/01/08 04:32:40;;;;;;;6.95;4.57;;;2.50;1.00;;;;;;5079795;28;20094;-80
2024/01/08 04:35:06;;;;;;;6.30;4.70;;;2.50;1.00;;;;;;5031072;28;20443;-78
2024/01/08 04:37:33;;;;;;;6.65;4.35;;;2.40;1.00;;;;;;5048069;28;20641;-79
2024/01/08 04:39:59;;;;;;;7.88;4.78;;;2.40;1.00;;;;;;5028716;28;20045;-79
2024/01/08 04:42:25;;;;;;;6.53;4.70;;;3.40;1.00;;;;;;5032055;28;20040;-80
2024/01/08 04:44:50;;;;;;;5.30;4.18;;;2.60;1.00;;;;;;5065215;28;20048;-78
2024/01/08 04:47:16;;;;;;;6.10;4.78;;;2.20;1.00;;;;;;5051709;28;20076;-80
2024/01/08 04:49:42;;;;;;;7.72;5.07;;;3.30;1.00;;;;;;5017285;28;20225;-79
2024/01/08 04:52:08;;;;;;;5.00;3.63;;;2.10;1.00;;;;;;5013543;28;20049;-77
2024/01/08 04:54:33;;;;;;;6.00;4.28;;;2.10;1.00;;;;;;5034469;28;20041;-78
2024/01/08 04:56:59;;;;;;;5.57;3.95;;;3.10;1.00;;;;;;5050668;28;20076;-77
2024/01/08 04:59:25;;;;;;;5.47;4.63;;;1.90;1.00;;;;;;5032974;28;20044;-78
2024/01/08 05:01:51;;;;;;;6.25;4.07;;;1.90;1.00;;;;;;5032163;28;20049;-78
2024/01/08 05:04:17;;;;;;;7.05;4.30;;;1.80;1.00;;;;;;5018122;28;20032;-75
2024/01/08 05:06:44;;;;;;;6.18;5.00;;;2.60;1.00;;;;;;5050620;28;20079;-77
2024/01/08 05:09:10;;;;;;;5.97;4.68;;;3.00;1.00;;;;;;5051399;28;20382;-79
2024/01/08 05:11:36;;;;;;;7.38;4.80;;;1.80;1.00;;;;;;5057629;28;20055;-79
2024/01/08 05:14:03;;;;;;;6.85;4.80;;;2.10;1.00;;;;;;5050622;28;20517;-77
2024/01/08 05:16:29;;;;;;;7.75;4.65;;;1.80;1.00;;;;;;5050960;28;20382;-76
2024/01/08 05:18:55;;;;;;;5.38;4.40;;;2.90;1.00;;;;;;5048808;28;20094;-80
2024/01/08 05:21:21;;;;;;;6.05;4.50;;;1.70;1.00;;;;;;5050257;28;20036;-82
2024/01/08 05:23:46;;;;;;;6.82;4.75;;;1.90;1.00;;;;;;5034152;28;20033;-78
2024/01/08 05:26:12;;;;;;;7.70;4.97;;;1.60;1.00;;;;;;5050666;28;20483;-76
2024/01/08 05:28:38;;;;;;;7.88;4.93;;;1.70;1.00;;;;;;5050355;28;20040;-78
2024/01/08 05:31:03;;;;;;;6.40;4.40;;;2.10;1.00;;;;;;5067431;28;20053;-76
2024/01/08 05:33:29;;;;;;;7.35;4.90;;;2.40;1.00;;;;;;5047422;28;20478;-79
2024/01/08 05:35:55;;;;;;;6.40;4.70;;;2.00;1.00;;;;;;5076339;28;20216;-78
2024/01/08 05:38:21;;;;;;;8.50;4.72;;;1.60;1.00;;;;;;5049606;28;20053;-83
2024/01/08 05:40:55;;;;;;;9.10;5.30;;;1.50;1.00;;;;;;5018718;28;20105;-79
2024/01/08 05:43:21;;;;;;;8.15;5.00;;;2.20;1.00;;;;;;5023569;28;20512;-82
2024/01/08 05:45:47;;;;;;;7.68;5.40;;;1.70;1.00;;;;;;5032813;28;20033;-78
2024/01/08 05:48:12;;;;;;;8.15;5.15;;;1.80;1.00;;;;;;5026011;28;20037;-78
2024/01/08 05:50:38;;;;;;;8.55;5.05;;;1.60;14.80;;;;;;5050584;28;20041;-80
2024/01/08 05:53:04;;;;;;;7.90;5.13;;;2.40;29.60;;;;;;5052087;28;20048;-76
2024/01/08 05:55:30;;;;;;;7.95;5.20;;;1.60;48.50;;;;;;5016642;28;20041;-82
2024/01/08 05:57:55;;;;;;;7.90;5.30;;;2.70;60.40;;;;;;5066575;28;20041;-80
2024/01/08 06:00:21;;;;;;;6.95;5.05;;;1.60;92.60;;;;;;5015427;28;20091;-78
2024/01/08 06:02:47;;;;;;;10.30;5.00;;;2.80;99.50;;;;;;5030515;28;20140;-76
2024/01/08 06:05:13;;;;;;;7.03;4.90;;;1.60;99.90;;;;;;5032842;28;20072;-77
2024/01/08 06:07:39;;;;;;;8.73;5.85;;;2.70;99.90;;;;;;5027187;28;20049;-80
2024/01/08 06:10:05;;;;;;;7.75;5.00;;;2.70;99.90;;;;;;5047686;28;20029;-79
2024/01/08 06:12:31;;;;;;;7.28;5.20;;;1.70;99.90;;;;;;5050110;28;20033;-77
2024/01/08 06:14:57;;;;;;;6.90;5.05;;;1.80;99.90;;;;;;5031698;28;20553;-80
2024/01/08 06:17:23;;;;;;;8.77;5.10;;;2.00;99.90;;;;;;5052823;28;20049;-80
2024/01/08 06:19:48;;;;;;;7.38;5.35;;;2.40;99.90;;;;;;5032264;28;20075;-81
2024/01/08 06:22:15;;;;;;;6.75;4.68;;;3.00;99.90;;;;;;5064389;28;20098;-77
2024/01/08 06:24:41;;;;;;;9.27;5.38;;;2.50;99.90;;;;;;5032421;28;20044;-79
2024/01/08 06:27:07;;;;;;;9.43;5.20;;;2.10;99.90;;;;;;5046832;28;20033;-78
2024/01/08 06:29:33;;;;;;;7.72;4.70;;;2.90;99.90;;;;;;5049233;28;20048;-80
2024/01/08 06:31:59;;;;;;;9.90;4.88;;;2.10;99.90;;;;;;5047992;28;20768;-77
2024/01/08 06:34:25;;;;;;;10.77;5.13;;;2.20;99.90;;;;;;5052426;28;20045;-76
2024/01/08 06:36:51;;;;;;;8.45;5.13;;;2.70;99.90;;;;;;5048685;28;20044;-80
2024/01/08 06:39:17;;;;;;;9.48;5.53;;;3.30;99.90;;;;;;5031981;28;20044;-77
2024/01/08 06:41:43;;;;;;;9.00;5.30;;;3.50;99.90;;;;;;5048364;28;20063;-77
2024/01/08 06:44:09;;;;;;;9.32;5.20;;;3.40;99.90;;;;;;5028621;28;20594;-77
2024/01/08 06:46:34;;;;;;;9.27;5.25;;;2.40;99.90;;;;;;5046276;28;20412;-78
2024/01/08 06:49:00;;;;;;;11.18;5.57;;;2.30;99.90;;;;;;5072573;28;20033;-78
2024/01/08 06:51:26;;;;;;;9.57;4.78;;;2.50;99.90;;;;;;5013270;28;20128;-76
2024/01/08 06:53:51;;;;;;;9.45;5.10;;;2.70;99.90;;;;;;5023906;28;20041;-79
2024/01/08 06:56:17;;;;;;;8.10;5.13;;;2.40;99.90;;;;;;5046857;28;20041;-74
2024/01/08 06:58:43;;;;;;;8.80;5.45;;;2.50;99.90;;;;;;5048090;28;20037;-79
2024/01/08 07:01:09;;;;;;;8.93;5.07;;;2.60;99.90;;;;;;5011929;28;20494;-77
2024/01/08 07:03:37;;;;;;;6.93;4.82;;;2.90;99.90;;;;;;5031005;28;20048;-76
2024/01/08 07:06:03;;;;;;;7.55;4.70;;;2.40;99.90;;;;;;5029344;28;20116;-80
2024/01/08 07:08:29;;;;;;;10.98;5.28;;;2.40;99.90;;;;;;5048888;28;20163;-78
2024/01/08 07:10:54;;;;;;;9.88;4.85;;;2.60;99.90;;;;;;5062820;28;20487;-79
2024/01/08 07:13:21;;;;;;;8.02;5.20;;;2.50;99.90;;;;;;5032242;28;20041;-78
2024/01/08 07:15:49;;;;;;;9.48;5.40;;;2.50;99.90;;;;;;5030110;28;20405;-81
2024/01/08 07:18:18;;;;;;;9.35;5.07;;;2.50;99.90;;;;;;5051729;28;20704;-78
2024/01/08 07:20:44;;;;;;;8.95;4.75;;;3.30;99.90;;;;;;5066848;28;20037;-77
2024/01/08 07:23:11;;;;;;;7.72;5.25;;;3.60;99.90;;;;;;5045151;28;20397;-81
2024/01/08 07:25:38;;;;;;;9.30;5.05;;;2.70;99.90;;;;;;5047677;28;20461;-78
2024/01/08 07:28:06;;;;;;;7.55;5.05;;;2.80;99.90;;;;;;5031180;28;20094;-80
2024/01/08 07:30:32;;;;;;;9.75;5.10;;;3.70;99.90;;;;;;5048126;28;20105;-79
2024/01/08 07:32:58;;;;;;;8.27;4.75;;;3.30;99.90;;;;;;5030613;28;20044;-79
2024/01/08 07:35:24;;;;;;;10.27;5.15;;;3.30;99.90;;;;;;5047736;28;20048;-78
2024/01/08 07:37:55;;;;;;;7.57;4.47;;;3.90;99.90;;;;;;5030433;28;20047;-82
2024/01/08 07:40:27;;;;;;;9.77;4.68;;;2.70;99.90;;;;;;5078875;28;20052;-80
2024/01/08 07:42:54;;;;;;;8.68;4.78;;;2.80;99.90;;;;;;5063606;28;20037;-76
2024/01/08 07:45:22;;;;;;;8.52;5.10;;;2.70;99.90;;;;;;5064413;28;20068;-81
2024/01/08 07:47:49;;;;;;;7.30;4.35;;;2.80;99.90;;;;;;5079131;28;20111;-78
2024/01/08 07:50:15;;;;;;;10.48;5.43;;;2.90;99.90;;;;;;5079127;28;20037;-78
2024/01/08 07:52:41;;;;;;;10.75;7.47;;;3.10;99.90;;;;;;5029386;28;21077;-79
2024/01/08 07:55:07;;;;;;;9.38;5.00;;;3.00;99.90;;;;;;5014430;28;20041;-78
2024/01/08 07:57:34;;;;;;;6.57;3.90;;;2.90;99.90;;;;;;5047194;28;20055;-76
2024/01/08 08:00:00;;;;;;;7.13;4.43;;;2.90;99.90;;;;;;5014133;28;20037;-81
2024/01/08 08:02:25;;;;;;;6.05;4.40;;;3.00;99.90;;;;;;5028945;28;20045;-76
2024/01/08 08:04:53;;;;;;;9.57;4.13;;;2.90;99.90;;;;;;5031089;28;20505;-82
2024/01/08 08:07:19;;;;;;;9.48;4.05;;;3.10;99.90;;;;;;5030502;28;20855;-81
2024/01/08 08:09:45;;;;;;;7.57;4.15;;;3.00;99.90;;;;;;5031463;28;20048;-78
2024/01/08 08:12:11;;;;;;;8.23;3.90;;;3.10;99.90;;;;;;5031163;28;20393;-80
2024/01/08 08:14:37;;;;;;;7.15;3.95;;;4.30;99.90;;;;;;5064772;28;20048;-80
2024/01/08 08:17:03;;;;;;;7.38;4.28;;;3.30;99.90;;;;;;5083240;28;20049;-81
2024/01/08 08:19:29;;;;;;;7.95;4.22;;;3.00;99.90;;;;;;5061481;28;20153;-82
2024/01/08 08:21:56;;;;;;;7.90;4.32;;;3.20;99.90;;;;;;5017653;28;20056;-80
2024/01/08 08:24:21;;;;;;;8.10;3.97;;;3.40;99.90;;;;;;5034832;28;20167;-80
2024/01/08 08:26:47;;;;;;;4.82;3.28;;;3.20;99.90;;;;;;5051733;28;20557;-80
2024/01/08 08:29:13;;;;;;;5.82;3.70;;;4.30;99.90;;;;;;5032995;28;20063;-79
2024/01/08 08:31:38;;;;;;;10.95;4.15;;;3.50;99.90;;;;;;5034900;28;20077;-80
2024/01/08 08:34:04;;;;;;;6.25;4.15;;;3.20;99.90;;;;;;5014608;28;20045;-81
2024/01/08 08:36:30;;;;;;;8.82;4.53;;;3.30;99.90;;;;;;5059643;28;20698;-78
2024/01/08 08:38:56;;;;;;;7.82;4.78;;;3.50;99.90;;;;;;5066179;28;20043;-80
2024/01/08 08:41:22;;;;;;;9.55;5.80;;;4.40;99.90;;;;;;5032573;28;20044;-78
2024/01/08 08:43:48;;;;;;;10.40;5.97;;;3.40;99.90;;;;;;5049357;28;20411;-80
2024/01/08 08:46:17;;;;;;;10.10;5.90;;;3.30;99.90;;;;;;5049921;28;20120;-83
2024/01/08 08:48:44;;;;;;;9.43;6.45;;;3.20;99.90;;;;;;5050339;28;20041;-81
2024/01/08 08:51:10;;;;;;;10.75;7.18;;;3.60;99.90;;;;;;5050820;28;20080;-80
2024/01/08 08:53:37;;;;;;;10.13;7.10;;;3.30;99.90;;;;;;5033915;28;20551;-80
2024/01/08 08:56:04;;;;;;;12.90;7.68;;;3.40;99.90;;;;;;5033903;28;20045;-79
2024/01/08 08:58:30;;;;;;;11.68;7.28;;;3.30;99.90;;;;;;5016036;28;20041;-79
2024/01/08 09:00:56;;;;;;;7.75;5.47;;;3.40;99.90;;;;;;5033168;28;20543;-80
2024/01/08 09:03:22;;;;;;;7.13;5.55;;;3.70;99.90;;;;;;5029548;28;20061;-81
2024/01/08 09:05:48;;;;;;;8.02;4.88;;;3.30;98.40;;;;;;5048655;28;20234;-80
2024/01/08 09:08:14;;;;;;;5.80;3.40;;;3.50;90.30;;;;;;5033480;28;20052;-78
2024/01/08 09:10:39;;;;;;;7.15;2.92;;;4.20;20.30;;;;;;5033975;28;20084;-81
2024/01/08 09:13:05;;;;;;;4.30;2.67;;;3.70;1.00;;;;;;5034071;28;20103;-83
2024/01/08 09:15:31;;;;;;;6.15;3.03;;;4.60;1.00;;;;;;5032655;28;20104;-83
2024/01/08 09:17:56;;;;;;;4.60;2.97;;;3.90;1.00;;;;;;5033437;28;20040;-80
2024/01/08 09:20:22;;;;;;;5.80;2.92;;;3.60;1.00;;;;;;5014421;28;20049;-81
2024/01/08 09:22:48;;;;;;;7.95;3.00;;;3.50;1.00;;;;;;5067099;28;20037;-80
2024/01/08 09:25:14;;;;;;;5.57;2.85;;;4.50;1.00;;;;;;5081755;28;20103;-82
2024/01/08 09:27:42;;;;;;;3.70;2.78;;;3.60;1.00;;;;;;5050347;28;20033;-82
2024/01/08 09:30:08;;;;;;;5.00;3.30;;;3.90;1.00;;;;;;5049453;28;20049;-83
2024/01/08 09:32:34;;;;;;;6.25;3.13;;;3.90;99.90;;;;;;5051017;28;20727;-81
2024/01/08 09:35:00;;;;;;;4.30;2.90;;;4.70;99.90;;;;;;5046284;28;20041;-82
2024/01/08 09:37:25;;;;;;;4.93;3.17;;;4.70;99.90;;;;;;5051672;28;20567;-80
2024/01/08 09:39:53;;;;;;;3.60;2.70;;;4.50;99.90;;;;;;5049594;28;20040;-80
2024/01/08 09:42:20;;;;;;;5.10;2.83;;;4.40;99.90;;;;;;5049740;28;20041;-81
2024/01/08 09:44:50;;;;;;;10.30;3.03;;;4.10;99.90;;;;;;5032018;28;20048;-79
2024/01/08 09:47:16;;;;;;;4.65;3.10;;;4.00;99.90;;;;;;5048365;28;20029;-80
2024/01/08 09:49:44;;;;;;;7.18;2.90;;;4.80;99.90;;;;;;5013926;28;20053;-81
2024/01/08 09:52:13;;;;;;;5.47;3.78;;;3.80;99.90;;;;;;5029687;28;20088;-79
2024/01/08 09:54:40;;;;;;;6.45;3.70;;;3.70;99.90;;;;;;5022831;28;20186;-79
2024/01/08 09:57:08;;;;;;;5.60;3.30;;;4.60;99.90;;;;;;5046413;28;20045;-80
2024/01/08 09:59:35;;;;;;;6.47;3.60;;;4.10;99.90;;;;;;5042081;28;20069;-84
2024/01/08 10:02:02;;;;;;;5.60;3.10;;;3.80;99.90;;;;;;5030041;28;20056;-79
2024/01/08 10:04:29;;;;;;;6.53;3.17;;;3.70;99.90;;;;;;5043328;28;20045;-81
2024/01/08 10:07:08;;;;;;;6.70;3.50;;;4.40;99.90;;;;;;5048144;28;20071;-81
2024/01/08 10:09:34;;;;;;;6.68;3.45;;;3.70;99.90;;;;;;5048439;28;20056;-78
2024/01/08 10:12:00;;;;;;;9.75;4.13;;;4.40;99.90;;;;;;5033752;28;20144;-83
2024/01/08 10:14:26;;;;;;;5.57;3.38;;;4.90;99.90;;;;;;5049550;28;20393;-81
2024/01/08 10:16:54;;;;;;;7.75;5.22;;;3.80;99.90;;;;;;5065428;28;20060;-79
2024/01/08 10:19:23;;;;;;;14.20;4.85;;;4.50;99.90;;;;;;5047833;28;20055;-81
2024/01/08 10:22:10;;;;;;;6.10;3.70;;;3.80;99.90;;;;;;5063329;28;20044;-84
2024/01/08 10:24:38;;;;;;;5.15;3.40;;;3.90;99.90;;;;;;5040260;28;20374;-81
2024/01/08 10:27:04;;;;;;;5.80;3.55;;;4.00;99.90;;;;;;5032289;28;20381;-84
2024/01/08 10:29:30;;;;;;;6.32;3.90;;;3.90;99.90;;;;;;5048100;28;20048;-80
2024/01/08 10:31:57;;;;;;;6.05;3.75;;;3.90;99.90;;;;;;5033053;28;20035;-82
2024/01/08 10:34:24;;;;;;;7.03;4.10;;;3.90;99.90;;;;;;5032456;28;20045;-84
2024/01/08 10:36:51;;;;;;;4.90;3.95;;;3.90;99.90;;;;;;5000147;28;20033;-82
2024/01/08 10:39:18;;;;;;;5.45;3.78;;;3.90;99.90;;;;;;5045627;28;20378;-83
2024/01/08 10:41:43;;;;;;;8.18;4.00;;;3.90;99.90;;;;;;5029854;28;20028;-82
2024/01/08 10:44:09;;;;;;;7.65;3.75;;;4.00;99.90;;;;;;5016264;28;20547;-80
2024/01/08 10:46:44;;;;;;;7.93;3.92;;;4.00;99.90;;;;;;5032431;28;20040;-81
2024/01/08 10:49:18;;;;;;;5.07;3.92;;;4.50;99.90;;;;;;5046686;28;20033;-79
2024/01/08 10:51:47;;;;;;;6.38;3.90;;;4.00;99.90;;;;;;5031675;28;20051;-78
2024/01/08 10:54:16;;;;;;;5.40;3.58;;;4.70;99.90;;;;;;5031870;28;20033;-78
2024/01/08 10:56:43;;;;;;;6.05;3.55;;;4.10;99.90;;;;;;5063417;28;20037;-83
2024/01/08 10:59:09;;;;;;;4.97;3.40;;;4.10;99.90;;;;;;5063252;28;20405;-81
2024/01/08 11:01:36;;;;;;;4.40;3.08;;;4.10;99.90;;;;;;5027352;28;20045;-77
2024/01/08 11:04:06;;;;;;;5.38;2.97;;;4.60;99.90;;;;;;5065243;28;20148;-75
2024/01/08 11:06:38;;;;;;;4.82;3.10;;;4.50;99.90;;;;;;5031242;28;20029;-80
2024/01/08 11:09:04;;;;;;;9.57;3.47;;;4.50;99.90;;;;;;5047738;28;20040;-81
2024/01/08 11:11:33;;;;;;;5.80;3.35;;;4.30;99.90;;;;;;5031779;28;20075;-77
2024/01/08 11:14:03;;;;;;;4.22;2.80;;;4.60;99.90;;;;;;5032146;28;20106;-78
2024/01/08 11:16:30;;;;;;;4.40;2.85;;;5.20;99.90;;;;;;5031098;28;20049;-78
2024/01/08 11:19:17;;;;;;;3.88;3.25;;;4.70;99.90;;;;;;5032160;28;20044;-75
2024/01/08 11:21:43;;;;;;;3.85;3.00;;;5.00;99.90;;;;;;5030277;28;20037;-75
2024/01/08 11:24:09;;;;;;;5.10;3.40;;;4.90;99.90;;;;;;5013253;28;20120;-80
2024/01/08 11:26:47;;;;;;;4.18;3.03;;;4.80;99.90;;;;;;5047312;28;20037;-76
2024/01/08 11:29:15;;;;;;;5.20;3.08;;;4.70;99.90;;;;;;5047655;28;20044;-76
2024/01/08 11:31:43;;;;;;;5.25;3.03;;;5.10;99.90;;;;;;5046836;28;20071;-80
2024/01/08 11:34:18;;;;;;;5.20;3.20;;;4.80;99.90;;;;;;5048243;28;20123;-79
2024/01/08 11:36:48;;;;;;;4.30;3.20;;;4.70;99.90;;;;;;5031464;28;20100;-75
2024/01/08 11:39:19;;;;;;;6.32;3.47;;;5.60;99.90;;;;;;5047049;28;20041;-76
2024/01/08 11:41:46;;;;;;;5.47;3.50;;;5.30;99.90;;;;;;5042696;28;20503;-78
2024/01/08 11:44:14;;;;;;;4.10;3.13;;;5.20;99.90;;;;;;5012604;28;20048;-79
2024/01/08 11:46:41;;;;;;;3.97;2.83;;;4.90;99.90;;;;;;5047828;28;20040;-75
2024/01/08 11:49:07;;;;;;;3.65;2.63;;;4.40;99.90;;;;;;5030723;28;20048;-77
2024/01/08 11:51:34;;;;;;;3.88;3.17;;;4.60;99.90;;;;;;5047178;28;20393;-76
2024/01/08 11:54:06;;;;;;;3.97;3.22;;;5.10;99.90;;;;;;5052035;28;20043;-77
2024/01/08 11:56:33;;;;;;;4.97;3.03;;;5.00;99.90;;;;;;5051016;28;20055;-77
2024/01/08 11:58:59;;;;;;;3.80;2.92;;;5.00;99.90;;;;;;5035791;28;20390;-78
2024/01/08 12:01:26;;;;;;;4.43;3.45;;;4.90;99.90;;;;;;5049969;28;20041;-80
2024/01/08 12:03:58;;;;;;;4.03;3.05;;;6.00;99.90;;;;;;5035090;28;20044;-75
2024/01/08 12:06:25;;;;;;;3.70;2.60;;;5.20;99.90;;;;;;5051597;28;20167;-78
2024/01/08 12:08:55;;;;;;;5.68;3.38;;;5.00;99.90;;;;;;5051873;28;20124;-80
2024/01/08 12:11:24;;;;;;;4.72;3.35;;;5.20;99.90;;;;;;5050525;28;20044;-75
2024/01/08 12:13:51;;;;;;;4.55;3.22;;;5.10;99.90;;;;;;5049889;28;20051;-74
2024/01/08 12:16:17;;;;;;;4.60;3.25;;;5.30;99.90;;;;;;5049229;28;20055;-79
2024/01/08 12:18:43;;;;;;;4.95;3.25;;;5.40;99.90;;;;;;5050999;28;20041;-74
2024/01/08 12:21:10;;;;;;;5.30;3.42;;;5.30;99.90;;;;;;5018704;28;20041;-75
2024/01/08 12:23:36;;;;;;;3.80;3.08;;;5.30;99.90;;;;;;5049741;28;20389;-78
2024/01/08 12:26:03;;;;;;;4.47;3.33;;;4.80;70.80;;;;;;5034800;28;20103;-75
2024/01/08 12:28:31;;;;;;;4.18;3.28;;;4.70;1.00;;;;;;5083048;28;20104;-77
2024/01/08 12:31:01;;;;;;;5.35;3.28;;;4.80;1.00;;;;;;5068926;28;20043;-75
2024/01/08 12:33:27;;;;;;;4.47;3.28;;;4.80;99.90;;;;;;5049892;28;20049;-75
2024/01/08 12:35:56;;;;;;;5.25;3.40;;;4.80;99.90;;;;;;5051188;28;20508;-79
2024/01/08 12:38:22;;;;;;;3.85;3.15;;;4.60;99.90;;;;;;5032382;28;20053;-73
2024/01/08 12:40:51;;;;;;;6.30;3.72;;;4.50;99.90;;;;;;5034167;28;20068;-79
2024/01/08 12:43:21;;;;;;;5.35;3.00;;;4.50;99.90;;;;;;5012587;28;20514;-78
2024/01/08 12:45:48;;;;;;;8.50;3.97;;;4.30;99.90;;;;;;5047605;28;20037;-80
2024/01/08 12:48:14;;;;;;;4.35;3.33;;;4.20;1.00;;;;;;5034900;28;20103;-78
2024/01/08 12:50:40;;;;;;;6.20;3.70;;;4.00;99.90;;;;;;5014475;28;20645;-77
2024/01/08 12:53:07;;;;;;;6.07;3.40;;;4.00;1.00;;;;;;5038510;28;20051;-77
2024/01/08 12:55:32;;;;;;;4.57;3.60;;;4.00;1.00;;;;;;5047700;28;20039;-75